Time;durP1;ratioP1;P1;durP2;ratioP2;P2;SDS_P1;SDS_P2;PMS_P1;PMS_P2;Temp;Humidity;BMP_temperature;BMP_pressure;BME280_temperature;BME280_humidity;BME280_pressure;Samples;Min_cycle;Max_cycle;Signal;HPM_P1;HPM_P2
2022/03/16 00:02:01;;;;;;;;;;;4.30;99.90;;;;;;5035860;28;19925;-76
2022/03/16 00:04:28;;;;;;;;;;;4.30;99.90;;;;;;5036176;28;19925;-77
2022/03/16 00:06:55;;;;;;;;;;;4.30;99.90;;;;;;5036206;28;19924;-77
2022/03/16 00:09:23;;;;;;;;;;;4.30;99.90;;;;;;5035561;28;19932;-76
2022/03/16 00:11:50;;;;;;;;;;;4.20;99.90;;;;;;5035760;28;19929;-76
2022/03/16 00:14:17;;;;;;;;;;;4.20;99.90;;;;;;5035797;28;20480;-77
2022/03/16 00:16:44;;;;;;;;;;;4.20;99.90;;;;;;5036082;28;19932;-76
2022/03/16 00:19:11;;;;;;;;;;;4.20;99.90;;;;;;5035390;28;19925;-76
2022/03/16 00:21:38;;;;;;;;;;;4.20;99.90;;;;;;5036190;28;20004;-76
2022/03/16 00:24:05;;;;;;;;;;;4.30;99.90;;;;;;5035702;28;19925;-77
2022/03/16 00:26:33;;;;;;;;;;;4.30;99.90;;;;;;5035740;28;19929;-76
2022/03/16 00:29:00;;;;;;;;;;;4.30;99.90;;;;;;5035210;28;19928;-77
2022/03/16 00:31:27;;;;;;;;;;;4.30;99.90;;;;;;5035715;28;19929;-76
2022/03/16 00:33:54;;;;;;;;;;;4.30;99.90;;;;;;5035734;28;19925;-76
2022/03/16 00:36:21;;;;;;;;;;;4.30;99.90;;;;;;5035698;28;19925;-76
2022/03/16 00:38:48;;;;;;;;;;;4.30;99.90;;;;;;5035430;28;19936;-76
2022/03/16 00:41:15;;;;;;;;;;;4.30;99.90;;;;;;5035574;28;19931;-76
2022/03/16 00:43:44;;;;;;;;;;;4.30;99.90;;;;;;5034720;28;19929;-76
2022/03/16 00:46:12;;;;;;;;;;;4.30;99.90;;;;;;5035348;28;20316;-76
2022/03/16 00:48:39;;;;;;;;;;;4.30;99.90;;;;;;5034884;28;19924;-76
2022/03/16 00:51:06;;;;;;;;;;;4.30;99.90;;;;;;5035112;28;19925;-76
2022/03/16 00:53:34;;;;;;;;;;;4.30;99.90;;;;;;5035174;28;19928;-76
2022/03/16 00:56:01;;;;;;;;;;;4.30;99.90;;;;;;5035299;28;20015;-76
2022/03/16 00:58:28;;;;;;;;;;;4.30;99.90;;;;;;5035300;28;20480;-76
2022/03/16 01:00:58;;;;;;;;;;;4.40;99.90;;;;;;5034505;28;19932;-76
2022/03/16 01:03:25;;;;;;;;;;;4.40;99.90;;;;;;5034686;28;20319;-76
2022/03/16 01:05:53;;;;;;;;;;;4.40;99.90;;;;;;5034360;28;19952;-76
2022/03/16 01:08:21;;;;;;;;;;;4.40;99.90;;;;;;5034595;28;20312;-76
2022/03/16 01:10:48;;;;;;;;;;;4.50;99.90;;;;;;5051289;28;19929;-76
2022/03/16 01:13:15;;;;;;;;;;;4.50;99.90;;;;;;5051535;28;19931;-75
2022/03/16 01:15:41;;;;;;;;;;;4.50;99.90;;;;;;5034815;28;20277;-76
2022/03/16 01:18:10;;;;;;;;;;;4.50;99.90;;;;;;5051570;28;19924;-76
2022/03/16 01:20:36;;;;;;;;;;;4.50;99.90;;;;;;5051192;28;19960;-76
2022/03/16 01:23:04;;;;;;;;;;;4.60;99.90;;;;;;5034182;28;19978;-76
2022/03/16 01:25:31;;;;;;;;;;;4.60;99.90;;;;;;5034743;28;19960;-76
2022/03/16 01:27:58;;;;;;;;;;;4.60;99.90;;;;;;5034532;28;19960;-76
2022/03/16 01:30:25;;;;;;;;;;;4.60;99.90;;;;;;5034112;28;19925;-76
2022/03/16 01:32:51;;;;;;;;;;;4.60;99.90;;;;;;5034443;28;20289;-76
2022/03/16 01:35:20;;;;;;;;;;;4.70;99.90;;;;;;5034251;28;19931;-76
2022/03/16 01:37:47;;;;;;;;;;;4.70;99.90;;;;;;5034333;28;20411;-75
2022/03/16 01:40:14;;;;;;;;;;;4.70;99.90;;;;;;5033874;28;19929;-76
2022/03/16 01:42:41;;;;;;;;;;;4.70;99.90;;;;;;5034116;28;19929;-76
2022/03/16 01:45:09;;;;;;;;;;;4.80;99.90;;;;;;5034272;28;19983;-76
2022/03/16 01:47:37;;;;;;;;;;;4.70;99.90;;;;;;5034166;28;19925;-76
2022/03/16 01:50:04;;;;;;;;;;;4.80;99.90;;;;;;5033671;28;19967;-76
2022/03/16 01:52:33;;;;;;;;;;;4.80;99.90;;;;;;5034081;28;19982;-76
2022/03/16 01:55:04;;;;;;;;;;;4.80;99.90;;;;;;5034259;28;19925;-76
2022/03/16 01:57:33;;;;;;;;;;;4.70;99.90;;;;;;5033560;28;19925;-76
2022/03/16 02:00:00;;;;;;;;;;;4.70;99.90;;;;;;5050140;28;19925;-76
2022/03/16 02:02:27;;;;;;;;;;;4.60;99.90;;;;;;5033819;28;20439;-76
2022/03/16 02:04:54;;;;;;;;;;;4.60;99.90;;;;;;5050769;28;19948;-76
2022/03/16 02:07:21;;;;;;;;;;;4.50;99.90;;;;;;5033791;28;20335;-76
2022/03/16 02:09:50;;;;;;;;;;;4.40;99.90;;;;;;5033359;28;19936;-76
2022/03/16 02:12:16;;;;;;;;;;;4.40;99.90;;;;;;5033824;28;19924;-76
2022/03/16 02:14:43;;;;;;;;;;;4.40;99.90;;;;;;5033879;28;19932;-76
2022/03/16 02:17:10;;;;;;;;;;;4.30;99.90;;;;;;5034148;28;19925;-76
2022/03/16 02:19:37;;;;;;;;;;;4.30;99.90;;;;;;5033049;28;19932;-76
2022/03/16 02:22:05;;;;;;;;;;;4.30;99.90;;;;;;5033933;28;19931;-76
2022/03/16 02:24:33;;;;;;;;;;;4.30;99.90;;;;;;5033770;28;19925;-76
2022/03/16 02:27:00;;;;;;;;;;;4.20;99.90;;;;;;5033902;28;19925;-77
2022/03/16 02:29:27;;;;;;;;;;;4.20;99.90;;;;;;5032813;28;19925;-77
2022/03/16 02:31:53;;;;;;;;;;;4.10;99.90;;;;;;5033757;28;19925;-75
2022/03/16 02:34:20;;;;;;;;;;;4.10;99.90;;;;;;5033713;28;20342;-76
2022/03/16 02:36:47;;;;;;;;;;;4.00;99.90;;;;;;5033516;28;19925;-76
2022/03/16 02:39:14;;;;;;;;;;;4.00;99.90;;;;;;5052732;22;19926;-80
2022/03/16 02:41:46;;;;;;;;;;;4.00;99.90;;;;;;5036303;28;19929;-81
2022/03/16 02:44:13;;;;;;;;;;;3.90;99.90;;;;;;5020341;28;19960;-80
2022/03/16 02:46:40;;;;;;;;;;;3.90;99.90;;;;;;5036359;28;20324;-82
2022/03/16 02:49:07;;;;;;;;;;;3.80;99.90;;;;;;5036677;28;20361;-81
2022/03/16 02:51:33;;;;;;;;;;;3.80;99.90;;;;;;5037281;28;20327;-81
2022/03/16 02:54:00;;;;;;;;;;;3.90;99.90;;;;;;5037030;28;19929;-81
2022/03/16 02:56:27;;;;;;;;;;;3.90;99.90;;;;;;5037594;28;19929;-81
2022/03/16 02:58:56;;;;;;;;;;;4.00;99.90;;;;;;5036477;28;19932;-79
2022/03/16 03:01:23;;;;;;;;;;;4.00;99.90;;;;;;5037102;28;19925;-81
2022/03/16 03:03:49;;;;;;;;;;;4.00;99.90;;;;;;5036977;28;19929;-81
2022/03/16 03:06:16;;;;;;;;;;;4.00;99.90;;;;;;5020191;28;19932;-81
2022/03/16 03:08:44;;;;;;;;;;;3.90;99.90;;;;;;5039153;28;19925;-82
2022/03/16 03:11:11;;;;;;;;;;;3.90;99.90;;;;;;5040628;28;19960;-82
2022/03/16 03:13:37;;;;;;;;;;;3.90;99.90;;;;;;5023197;28;19929;-81
2022/03/16 03:16:06;;;;;;;;;;;3.90;99.90;;;;;;5040582;28;19929;-81
2022/03/16 03:18:35;;;;;;;;;;;3.80;99.90;;;;;;5040630;28;19929;-81
2022/03/16 03:21:02;;;;;;;;;;;3.80;99.90;;;;;;5038970;28;19925;-81
2022/03/16 03:23:28;;;;;;;;;;;3.70;99.90;;;;;;5039999;28;19925;-81
2022/03/16 03:25:55;;;;;;;;;;;3.70;99.90;;;;;;5024204;28;19926;-79
2022/03/16 03:28:22;;;;;;;;;;;3.70;99.90;;;;;;5023666;28;19925;-81
2022/03/16 03:30:49;;;;;;;;;;;3.70;99.90;;;;;;5039846;28;19932;-81
2022/03/16 03:33:17;;;;;;;;;;;3.60;99.90;;;;;;5039957;28;20377;-81
2022/03/16 03:35:44;;;;;;;;;;;3.60;99.90;;;;;;5040105;28;20403;-83
2022/03/16 03:38:11;;;;;;;;;;;3.60;99.90;;;;;;5040060;28;20377;-81
2022/03/16 03:40:38;;;;;;;;;;;3.60;99.90;;;;;;5039470;28;19931;-79
2022/03/16 03:43:05;;;;;;;;;;;3.50;99.90;;;;;;5039664;28;19936;-81
2022/03/16 03:45:32;;;;;;;;;;;3.50;99.90;;;;;;5039792;28;19931;-81
2022/03/16 03:47:58;;;;;;;;;;;3.50;99.90;;;;;;5040063;28;19967;-81
2022/03/16 03:50:27;;;;;;;;;;;3.50;99.90;;;;;;5038762;28;19951;-81
2022/03/16 03:52:53;;;;;;;;;;;3.50;99.90;;;;;;5023088;28;19932;-80
2022/03/16 03:55:22;;;;;;;;;;;3.50;99.90;;;;;;5038670;28;19925;-81
2022/03/16 03:57:49;;;;;;;;;;;3.40;99.90;;;;;;5040086;28;19960;-80
2022/03/16 04:00:16;;;;;;;;;;;3.40;99.90;;;;;;5038809;28;20359;-81
2022/03/16 04:02:47;;;;;;;;;;;3.40;99.90;;;;;;5039543;28;19925;-81
2022/03/16 04:05:13;;;;;;;;;;;3.40;99.90;;;;;;5038973;28;19929;-80
2022/03/16 04:07:42;;;;;;;;;;;3.40;99.90;;;;;;5038829;28;19932;-80
2022/03/16 04:10:09;;;;;;;;;;;3.40;99.90;;;;;;5021634;28;19932;-80
2022/03/16 04:12:37;;;;;;;;;;;3.40;99.90;;;;;;5038377;28;20385;-81
2022/03/16 04:15:05;;;;;;;;;;;3.40;99.90;;;;;;5038552;28;20352;-81
2022/03/16 04:17:31;;;;;;;;;;;3.30;99.90;;;;;;5022831;28;19928;-80
2022/03/16 04:19:58;;;;;;;;;;;3.30;99.90;;;;;;5037582;28;19932;-81
2022/03/16 04:22:26;;;;;;;;;;;3.30;99.90;;;;;;5022018;28;19929;-81
2022/03/16 04:24:54;;;;;;;;;;;3.30;99.90;;;;;;5038427;28;19932;-81
2022/03/16 04:27:22;;;;;;;;;;;3.20;99.90;;;;;;5038609;28;19932;-81
2022/03/16 04:29:49;;;;;;;;;;;3.20;99.90;;;;;;5038417;28;19925;-81
2022/03/16 04:32:16;;;;;;;;;;;3.20;99.90;;;;;;5038161;28;19929;-81
2022/03/16 04:34:42;;;;;;;;;;;3.20;99.90;;;;;;5039233;28;19951;-81
2022/03/16 04:37:09;;;;;;;;;;;3.20;99.90;;;;;;5037882;28;19925;-81
2022/03/16 04:39:36;;;;;;;;;;;3.20;99.90;;;;;;5031277;28;19925;-81
2022/03/16 04:42:05;;;;;;;;;;;3.20;99.90;;;;;;5040469;28;19924;-81
2022/03/16 04:44:32;;;;;;;;;;;3.20;99.90;;;;;;5041318;28;20393;-80
2022/03/16 04:46:58;;;;;;;;;;;3.20;99.90;;;;;;5041219;28;19929;-79
2022/03/16 04:49:25;;;;;;;;;;;3.20;99.90;;;;;;5040292;28;19966;-81
2022/03/16 04:51:52;;;;;;;;;;;3.20;99.90;;;;;;5041845;28;19925;-81
2022/03/16 04:54:19;;;;;;;;;;;3.20;99.90;;;;;;5041025;28;19925;-80
2022/03/16 04:56:46;;;;;;;;;;;3.20;99.90;;;;;;5040942;28;19972;-81
2022/03/16 04:59:14;;;;;;;;;;;3.20;99.90;;;;;;5041013;28;19929;-81
2022/03/16 05:01:41;;;;;;;;;;;3.20;99.90;;;;;;5042215;28;19924;-81
2022/03/16 05:04:08;;;;;;;;;;;3.20;99.90;;;;;;5041891;28;20284;-81
2022/03/16 05:06:35;;;;;;;;;;;3.10;99.90;;;;;;5041263;28;19924;-81
2022/03/16 05:09:01;;;;;;;;;;;3.10;99.90;;;;;;5039651;28;19925;-81
2022/03/16 05:11:28;;;;;;;;;;;3.10;99.90;;;;;;5041816;28;20395;-83
2022/03/16 05:13:56;;;;;;;;;;;3.10;99.90;;;;;;5041033;28;19932;-81
2022/03/16 05:16:24;;;;;;;;;;;3.00;99.90;;;;;;5040158;28;20300;-81
2022/03/16 05:18:51;;;;;;;;;;;3.00;99.90;;;;;;5040644;28;19925;-80
2022/03/16 05:21:18;;;;;;;;;;;3.00;99.90;;;;;;5038612;28;19924;-79
2022/03/16 05:23:44;;;;;;;;;;;3.00;99.90;;;;;;5038046;28;19925;-79
2022/03/16 05:26:11;;;;;;;;;;;3.00;99.90;;;;;;5037747;28;19925;-80
2022/03/16 05:28:38;;;;;;;;;;;3.00;99.90;;;;;;5037744;28;19929;-79
2022/03/16 05:31:05;;;;;;;;;;;3.00;99.90;;;;;;5036034;28;19944;-80
2022/03/16 05:33:33;;;;;;;;;;;2.90;99.90;;;;;;5035042;28;19925;-79
2022/03/16 05:36:00;;;;;;;;;;;2.90;99.90;;;;;;5035373;28;19925;-79
2022/03/16 05:38:27;;;;;;;;;;;2.90;99.90;;;;;;5035004;28;19925;-78
2022/03/16 05:40:54;;;;;;;;;;;2.90;99.90;;;;;;5025049;28;19925;-80
2022/03/16 05:43:21;;;;;;;;;;;2.90;99.90;;;;;;5048028;28;19925;-78
2022/03/16 05:45:48;;;;;;;;;;;2.90;99.90;;;;;;5024709;28;19928;-79
2022/03/16 05:48:16;;;;;;;;;;;2.90;99.90;;;;;;5019836;28;19925;-79
2022/03/16 05:50:46;;;;;;;;;;;2.90;99.90;;;;;;5028709;28;19925;-78
2022/03/16 05:53:13;;;;;;;;;;;3.00;99.90;;;;;;5038504;28;20017;-80
2022/03/16 05:55:40;;;;;;;;;;;3.00;99.90;;;;;;5022685;28;19924;-78
2022/03/16 05:58:07;;;;;;;;;;;3.00;99.90;;;;;;5023607;28;20385;-79
2022/03/16 06:00:35;;;;;;;;;;;3.10;99.90;;;;;;5019596;28;19940;-78
2022/03/16 06:03:01;;;;;;;;;;;3.10;99.90;;;;;;5008702;28;19925;-79
2022/03/16 06:05:30;;;;;;;;;;;3.20;99.90;;;;;;5031834;28;20125;-78
2022/03/16 06:07:59;;;;;;;;;;;3.20;99.90;;;;;;4998521;28;19936;-81
2022/03/16 06:10:26;;;;;;;;;;;3.20;99.90;;;;;;4993942;28;19953;-78
2022/03/16 06:12:54;;;;;;;;;;;3.30;99.90;;;;;;5038195;28;19925;-81
2022/03/16 06:15:20;;;;;;;;;;;3.30;99.90;;;;;;5019813;28;19925;-77
2022/03/16 06:17:47;;;;;;;;;;;3.40;99.90;;;;;;5034559;28;19929;-82
2022/03/16 06:20:14;;;;;;;;;;;3.50;99.90;;;;;;5018804;28;19975;-79
2022/03/16 06:22:41;;;;;;;;;;;3.50;99.90;;;;;;5024206;28;19925;-78
2022/03/16 06:25:10;;;;;;;;;;;3.50;99.90;;;;;;5015640;28;20033;-81
2022/03/16 06:27:36;;;;;;;;;;;3.60;99.90;;;;;;5014349;28;19925;-79
2022/03/16 06:30:03;;;;;;;;;;;3.70;99.90;;;;;;5013688;28;19925;-79
2022/03/16 06:32:30;;;;;;;;;;;3.70;99.90;;;;;;5013510;28;20397;-79
2022/03/16 06:34:57;;;;;;;;;;;3.80;99.90;;;;;;5013779;28;19925;-78
2022/03/16 06:37:24;;;;;;;;;;;3.80;99.90;;;;;;5013927;28;19925;-79
2022/03/16 06:39:51;;;;;;;;;;;3.90;99.90;;;;;;5015125;28;19925;-80
2022/03/16 06:42:19;;;;;;;;;;;3.90;99.90;;;;;;5018216;28;20027;-80
2022/03/16 06:44:46;;;;;;;;;;;4.00;99.90;;;;;;5034822;28;19932;-79
2022/03/16 06:47:13;;;;;;;;;;;4.00;99.90;;;;;;5024781;28;19936;-79
2022/03/16 06:49:39;;;;;;;;;;;4.10;99.90;;;;;;5023613;28;19925;-78
2022/03/16 06:52:07;;;;;;;;;;;4.20;99.90;;;;;;5020493;28;19925;-78
2022/03/16 06:54:33;;;;;;;;;;;4.30;99.90;;;;;;5022715;28;19979;-79
2022/03/16 06:57:00;;;;;;;;;;;4.30;99.90;;;;;;5030121;28;19936;-79
2022/03/16 06:59:29;;;;;;;;;;;4.40;99.90;;;;;;5025854;28;19925;-79
2022/03/16 07:01:55;;;;;;;;;;;4.40;99.90;;;;;;5021578;28;19959;-77
2022/03/16 07:04:22;;;;;;;;;;;4.50;99.90;;;;;;5024702;28;20393;-80
2022/03/16 07:06:50;;;;;;;;;;;4.50;99.90;;;;;;5027568;28;19925;-83
2022/03/16 07:09:17;;;;;;;;;;;4.60;99.90;;;;;;5022548;28;20024;-78
2022/03/16 07:11:44;;;;;;;;;;;4.70;99.90;;;;;;5023142;28;19925;-77
2022/03/16 07:16:57;;;;;;;;;;;4.80;99.90;;;;;;5037086;28;19927;-75
2022/03/16 07:19:23;;;;;;;;;;;4.80;99.90;;;;;;5037137;28;19924;-76
2022/03/16 07:21:50;;;;;;;;;;;4.90;99.90;;;;;;5038144;28;19929;-75
2022/03/16 07:24:17;;;;;;;;;;;4.90;99.90;;;;;;5054898;28;19925;-76
2022/03/16 07:26:44;;;;;;;;;;;5.00;99.90;;;;;;5036844;28;20392;-76
2022/03/16 07:29:11;;;;;;;;;;;5.00;99.90;;;;;;5036423;28;19925;-76
2022/03/16 07:31:38;;;;;;;;;;;5.10;99.90;;;;;;5036634;28;19925;-76
2022/03/16 07:34:06;;;;;;;;;;;5.20;99.90;;;;;;5036712;28;19925;-75
2022/03/16 07:36:34;;;;;;;;;;;5.20;99.90;;;;;;5036633;28;20427;-75
2022/03/16 07:39:00;;;;;;;;;;;5.30;99.90;;;;;;5035684;28;19925;-78
2022/03/16 07:41:27;;;;;;;;;;;5.30;99.90;;;;;;5036191;28;19925;-77
2022/03/16 07:43:54;;;;;;;;;;;5.40;99.90;;;;;;5036194;28;19925;-74
2022/03/16 07:46:20;;;;;;;;;;;5.40;99.90;;;;;;5036653;28;19924;-75
2022/03/16 07:48:47;;;;;;;;;;;5.50;99.90;;;;;;5045135;28;19979;-81
2022/03/16 07:51:15;;;;;;;;;;;5.50;99.90;;;;;;5030830;28;19928;-80
2022/03/16 07:53:42;;;;;;;;;;;5.60;99.90;;;;;;5035188;28;19924;-79
2022/03/16 07:56:09;;;;;;;;;;;5.60;99.90;;;;;;5021750;28;19925;-79
2022/03/16 07:58:38;;;;;;;;;;;5.70;99.90;;;;;;5036495;28;19925;-81
2022/03/16 08:01:05;;;;;;;;;;;5.70;99.90;;;;;;5037490;28;19925;-80
2022/03/16 08:03:32;;;;;;;;;;;5.80;99.90;;;;;;5038027;28;19925;-79
2022/03/16 08:05:59;;;;;;;;;;;5.90;99.90;;;;;;5038154;28;20023;-79
2022/03/16 08:08:28;;;;;;;;;;;5.90;99.90;;;;;;5038161;28;19924;-79
2022/03/16 08:10:55;;;;;;;;;;;6.00;99.90;;;;;;5030175;28;19936;-80
2022/03/16 08:13:22;;;;;;;;;;;6.00;99.90;;;;;;5018374;28;19925;-82
2022/03/16 08:15:49;;;;;;;;;;;6.00;99.90;;;;;;5020574;28;20404;-80
2022/03/16 08:18:15;;;;;;;;;;;6.10;99.90;;;;;;5011595;28;19932;-80
2022/03/16 08:20:42;;;;;;;;;;;6.10;99.90;;;;;;5019177;28;19925;-80
2022/03/16 08:23:09;;;;;;;;;;;6.20;99.90;;;;;;5022454;28;20355;-79
2022/03/16 08:25:37;;;;;;;;;;;6.20;99.90;;;;;;5024812;28;19948;-79
2022/03/16 08:28:04;;;;;;;;;;;6.40;99.90;;;;;;5033671;28;20399;-79
2022/03/16 08:30:34;;;;;;;;;;;6.40;99.90;;;;;;5035862;28;19928;-79
2022/03/16 08:33:01;;;;;;;;;;;6.50;99.90;;;;;;5036290;28;19929;-79
2022/03/16 08:35:27;;;;;;;;;;;6.70;99.90;;;;;;5036606;28;20376;-79
2022/03/16 08:37:54;;;;;;;;;;;6.80;99.90;;;;;;5036362;28;20299;-80
2022/03/16 08:40:21;;;;;;;;;;;6.90;99.90;;;;;;5035949;28;19928;-78
2022/03/16 08:42:51;;;;;;;;;;;7.00;99.90;;;;;;5039164;28;19931;-79
2022/03/16 08:45:18;;;;;;;;;;;7.00;99.90;;;;;;5039297;28;19982;-80
2022/03/16 08:47:44;;;;;;;;;;;7.10;99.90;;;;;;5040074;28;19955;-80
2022/03/16 08:50:11;;;;;;;;;;;7.20;99.90;;;;;;5039121;28;19936;-80
2022/03/16 08:52:38;;;;;;;;;;;7.30;99.90;;;;;;5040136;28;19925;-79
2022/03/16 08:55:06;;;;;;;;;;;7.40;99.90;;;;;;5040020;28;19924;-80
2022/03/16 08:57:33;;;;;;;;;;;7.60;99.90;;;;;;5049672;28;20051;-80
2022/03/16 09:00:01;;;;;;;;;;;7.60;99.90;;;;;;5018371;28;19956;-79
2022/03/16 09:02:28;;;;;;;;;;;7.60;99.90;;;;;;5019843;28;19925;-80
2022/03/16 09:04:55;;;;;;;;;;;7.70;99.90;;;;;;5020489;28;19932;-79
2022/03/16 09:07:22;;;;;;;;;;;7.80;99.90;;;;;;5019261;28;19929;-81
2022/03/16 09:09:48;;;;;;;;;;;7.90;99.90;;;;;;5041459;28;19925;-80
2022/03/16 09:12:15;;;;;;;;;;;7.90;99.90;;;;;;5018656;28;19940;-80
2022/03/16 09:14:43;;;;;;;;;;;8.00;99.90;;;;;;5022763;28;19950;-79
2022/03/16 09:17:13;;;;;;;;;;;8.20;99.90;;;;;;5021899;28;19932;-80
2022/03/16 09:19:40;;;;;;;;;;;8.30;99.90;;;;;;5019150;28;19931;-82
2022/03/16 09:22:07;;;;;;;;;;;8.40;99.90;;;;;;5018832;28;19925;-81
2022/03/16 09:24:34;;;;;;;;;;;8.50;99.90;;;;;;5019011;28;19925;-81
2022/03/16 09:27:01;;;;;;;;;;;8.60;99.90;;;;;;5017847;28;19925;-84
2022/03/16 09:29:29;;;;;;;;;;;8.80;99.90;;;;;;5016487;28;20384;-80
2022/03/16 09:31:56;;;;;;;;;;;8.90;99.90;;;;;;5017923;28;19929;-81
2022/03/16 09:34:24;;;;;;;;;;;9.10;99.90;;;;;;5019113;28;19925;-81
2022/03/16 09:36:51;;;;;;;;;;;9.20;99.90;;;;;;5019063;28;19931;-81
2022/03/16 09:39:18;;;;;;;;;;;9.40;99.90;;;;;;5021710;28;19933;-78
2022/03/16 09:41:45;;;;;;;;;;;9.50;99.90;;;;;;5020312;28;19951;-81
2022/03/16 09:44:12;;;;;;;;;;;9.60;99.90;;;;;;5032753;28;19929;-83
2022/03/16 09:46:39;;;;;;;;;;;9.90;99.90;;;;;;5021665;28;20476;-81
2022/03/16 09:49:07;;;;;;;;;;;9.90;99.90;;;;;;5019624;28;19929;-84
2022/03/16 09:51:36;;;;;;;;;;;9.90;99.90;;;;;;5021908;28;20393;-84
2022/03/16 09:54:03;;;;;;;;;;;10.20;99.90;;;;;;5020705;28;20388;-83
2022/03/16 09:56:30;;;;;;;;;;;10.30;99.90;;;;;;5020504;28;20023;-85
2022/03/16 09:58:57;;;;;;;;;;;10.40;99.90;;;;;;5020105;28;19925;-81
2022/03/16 10:01:24;;;;;;;;;;;10.40;99.90;;;;;;5021204;28;19929;-84
2022/03/16 10:03:52;;;;;;;;;;;10.40;99.90;;;;;;5023038;28;19929;-81
2022/03/16 10:06:23;;;;;;;;;;;10.50;99.90;;;;;;5020003;28;19926;-82
2022/03/16 10:14:16;;;;;;;;;;;10.80;99.90;;;;;;5041706;28;19921;-84
2022/03/16 10:19:43;;;;;;;;;;;10.90;99.90;;;;;;5048155;28;19929;-83
2022/03/16 10:22:10;;;;;;;;;;;11.10;99.90;;;;;;5050112;28;19932;-82
2022/03/16 10:24:42;;;;;;;;;;;11.20;99.90;;;;;;5048488;28;19925;-83
2022/03/16 10:27:09;;;;;;;;;;;11.40;99.90;;;;;;5062815;28;20320;-85
2022/03/16 10:29:35;;;;;;;;;;;11.50;99.90;;;;;;5047650;28;19925;-84
2022/03/16 10:32:03;;;;;;;;;;;11.70;99.90;;;;;;5048255;28;19947;-84
2022/03/16 10:34:30;;;;;;;;;;;11.80;99.90;;;;;;5049114;28;19931;-86
2022/03/16 10:36:59;;;;;;;;;;;12.00;99.90;;;;;;5048741;28;19931;-83
2022/03/16 10:39:33;;;;;;;;;;;12.20;99.90;;;;;;5035946;28;19925;-83
2022/03/16 10:47:50;;;;;;;;;;;12.50;99.90;;;;;;5047118;28;19921;-84
2022/03/16 10:50:17;;;;;;;;;;;12.40;99.90;;;;;;5047141;28;19967;-82
2022/03/16 10:52:45;;;;;;;;;;;12.60;99.90;;;;;;5048641;28;19925;-82
2022/03/16 10:55:12;;;;;;;;;;;12.90;99.90;;;;;;5050238;28;19999;-85
2022/03/16 10:57:41;;;;;;;;;;;13.00;99.90;;;;;;5047612;28;19924;-83
2022/03/16 11:00:09;;;;;;;;;;;12.90;99.90;;;;;;5046682;28;20304;-82
2022/03/16 11:02:37;;;;;;;;;;;12.90;99.90;;;;;;5049779;28;19925;-83
2022/03/16 11:05:04;;;;;;;;;;;12.90;99.90;;;;;;5049273;28;19924;-85
2022/03/16 11:07:31;;;;;;;;;;;13.00;99.90;;;;;;5050695;28;19931;-83
2022/03/16 11:09:58;;;;;;;;;;;13.10;99.90;;;;;;5048719;28;20363;-85
2022/03/16 11:15:12;;;;;;;;;;;13.70;99.90;;;;;;5027527;28;19921;-83
2022/03/16 11:17:39;;;;;;;;;;;13.80;99.90;;;;;;5030282;28;19996;-85
2022/03/16 11:20:08;;;;;;;;;;;13.90;99.90;;;;;;5031284;28;19925;-83
2022/03/16 11:22:37;;;;;;;;;;;13.60;99.90;;;;;;5030606;28;19929;-85
2022/03/16 11:25:08;;;;;;;;;;;13.50;99.90;;;;;;5030415;28;19940;-85
2022/03/16 11:27:41;;;;;;;;;;;13.60;99.90;;;;;;5029771;28;19979;-86
2022/03/16 11:30:13;;;;;;;;;;;13.90;99.90;;;;;;5026754;28;19932;-84
2022/03/16 11:32:40;;;;;;;;;;;14.00;99.90;;;;;;5028869;28;19955;-85
2022/03/16 11:35:09;;;;;;;;;;;14.40;99.90;;;;;;5029543;28;19983;-84
2022/03/16 11:37:37;;;;;;;;;;;14.60;99.90;;;;;;5028473;28;19929;-84
2022/03/16 11:40:09;;;;;;;;;;;14.60;99.90;;;;;;5028314;28;19980;-84
2022/03/16 11:42:36;;;;;;;;;;;14.80;99.90;;;;;;5029948;28;19925;-86
2022/03/16 11:45:19;;;;;;;;;;;15.00;99.90;;;;;;5031281;28;19929;-86
2022/03/16 11:47:47;;;;;;;;;;;15.50;99.90;;;;;;5031445;28;19993;-86
2022/03/16 11:50:16;;;;;;;;;;;16.70;99.90;;;;;;5032618;28;19966;-85
2022/03/16 11:52:58;;;;;;;;;;;17.50;99.90;;;;;;5032112;28;19925;-84
2022/03/16 11:55:45;;;;;;;;;;;17.40;99.90;;;;;;5031588;28;19929;-83
2022/03/16 11:58:16;;;;;;;;;;;17.70;99.90;;;;;;5032948;28;19925;-84
2022/03/16 12:00:44;;;;;;;;;;;17.40;99.90;;;;;;5030926;28;19925;-82
2022/03/16 12:03:19;;;;;;;;;;;17.60;99.90;;;;;;5031790;28;19931;-82
2022/03/16 12:05:57;;;;;;;;;;;17.50;99.90;;;;;;5031138;28;19971;-84
2022/03/16 12:08:24;;;;;;;;;;;17.20;99.90;;;;;;5031867;28;19944;-82
2022/03/16 12:12:50;;;;;;;;;;;17.00;99.90;;;;;;5031225;28;19936;-83
2022/03/16 12:13:42;;;;;;;;;;;17.10;99.90;;;;;;5032286;28;19956;-86
2022/03/16 12:16:09;;;;;;;;;;;17.50;99.90;;;;;;5048566;28;19956;-82
2022/03/16 12:18:41;;;;;;;;;;;17.80;99.90;;;;;;5048133;28;19944;-85
2022/03/16 12:21:10;;;;;;;;;;;17.80;99.90;;;;;;5064458;28;19926;-83
2022/03/16 12:23:52;;;;;;;;;;;17.10;99.90;;;;;;5063263;28;19948;-82
2022/03/16 12:26:25;;;;;;;;;;;16.50;99.90;;;;;;5048132;28;19992;-84
2022/03/16 12:28:58;;;;;;;;;;;16.30;99.90;;;;;;5063730;28;20304;-82
2022/03/16 12:31:26;;;;;;;;;;;16.10;99.90;;;;;;5061674;28;19963;-80
2022/03/16 12:33:55;;;;;;;;;;;16.00;99.90;;;;;;5036438;28;19929;-81
2022/03/16 12:36:24;;;;;;;;;;;15.60;99.90;;;;;;5031935;28;19925;-81
2022/03/16 12:38:52;;;;;;;;;;;15.40;99.90;;;;;;5020029;28;19925;-80
2022/03/16 12:44:06;;;;;;;;;;;15.10;99.90;;;;;;5019843;28;19925;-83
2022/03/16 12:46:35;;;;;;;;;;;14.90;99.90;;;;;;5020031;28;19964;-81
2022/03/16 12:49:05;;;;;;;;;;;14.40;99.90;;;;;;5019434;28;19925;-81
2022/03/16 12:51:35;;;;;;;;;;;14.20;99.90;;;;;;5021567;28;20504;-81
2022/03/16 12:54:02;;;;;;;;;;;14.20;99.90;;;;;;5023745;28;19932;-80
2022/03/16 12:56:29;;;;;;;;;;;14.20;99.90;;;;;;5023639;28;19991;-81
2022/03/16 12:59:20;;;;;;;;;;;14.10;99.90;;;;;;5020091;28;19935;-77
2022/03/16 13:02:02;;;;;;;;;;;14.20;99.90;;;;;;5008280;28;20007;-79
2022/03/16 13:04:31;;;;;;;;;;;14.50;99.90;;;;;;5016390;28;19932;-75
2022/03/16 13:06:59;;;;;;;;;;;14.40;99.90;;;;;;5018183;28;20385;-75
2022/03/16 13:09:27;;;;;;;;;;;14.10;99.90;;;;;;5015522;28;20027;-77
2022/03/16 13:12:02;;;;;;;;;;;13.80;99.90;;;;;;5016862;28;19964;-81
2022/03/16 13:14:29;;;;;;;;;;;13.70;99.90;;;;;;5035208;28;20352;-82
2022/03/16 13:16:56;;;;;;;;;;;13.60;99.90;;;;;;5044202;28;19935;-82
2022/03/16 13:19:24;;;;;;;;;;;13.50;99.90;;;;;;5038419;28;20336;-82
2022/03/16 13:22:02;;;;;;;;;;;13.50;99.90;;;;;;5061634;28;20396;-85
2022/03/16 13:24:29;;;;;;;;;;;13.60;99.90;;;;;;5047231;28;19956;-81
2022/03/16 13:26:57;;;;;;;;;;;13.60;99.90;;;;;;5048105;28;19996;-82
2022/03/16 13:29:28;;;;;;;;;;;13.50;99.90;;;;;;5054456;28;20059;-82
2022/03/16 13:31:56;;;;;;;;;;;13.40;99.90;;;;;;5036296;28;19936;-82
2022/03/16 13:34:23;;;;;;;;;;;13.20;99.90;;;;;;5034174;28;19925;-85
2022/03/16 13:36:51;;;;;;;;;;;13.20;99.90;;;;;;5031626;28;19931;-82
2022/03/16 13:39:20;;;;;;;;;;;13.30;99.90;;;;;;5029454;28;19929;-80
2022/03/16 13:42:04;;;;;;;;;;;13.20;99.90;;;;;;5036382;28;20384;-81
2022/03/16 13:44:34;;;;;;;;;;;13.20;99.90;;;;;;5036670;28;19925;-80
2022/03/16 13:47:03;;;;;;;;;;;13.20;99.90;;;;;;5052666;28;19964;-81
2022/03/16 13:49:34;;;;;;;;;;;13.20;99.90;;;;;;5038669;28;19924;-81
2022/03/16 13:52:02;;;;;;;;;;;13.20;99.90;;;;;;5037408;28;19925;-81
2022/03/16 13:54:31;;;;;;;;;;;13.00;99.90;;;;;;5029029;28;19928;-80
2022/03/16 13:57:07;;;;;;;;;;;13.10;99.90;;;;;;5032176;28;19929;-84
2022/03/16 13:59:33;;;;;;;;;;;13.10;99.90;;;;;;5015641;28;19929;-82
2022/03/16 14:02:10;;;;;;;;;;;13.10;99.90;;;;;;5016904;28;19929;-81
2022/03/16 14:04:37;;;;;;;;;;;13.20;99.90;;;;;;5016269;28;19932;-80
2022/03/16 14:07:17;;;;;;;;;;;13.20;99.90;;;;;;5016203;28;19925;-84
2022/03/16 14:09:46;;;;;;;;;;;13.30;99.90;;;;;;5023062;28;19924;-88
2022/03/16 14:12:14;;;;;;;;;;;13.30;99.90;;;;;;5025094;28;19933;-81
2022/03/16 14:14:45;;;;;;;;;;;13.20;99.90;;;;;;5038155;28;20396;-81
2022/03/16 14:17:12;;;;;;;;;;;13.30;99.90;;;;;;5030289;28;20023;-81
2022/03/16 14:19:43;;;;;;;;;;;13.20;99.90;;;;;;5035649;28;19925;-83
2022/03/16 14:22:13;;;;;;;;;;;13.20;99.90;;;;;;5036374;28;20029;-81
2022/03/16 14:24:40;;;;;;;;;;;13.10;99.90;;;;;;5035560;28;19936;-81
2022/03/16 14:29:52;;;;;;;;;;;13.00;99.90;;;;;;5036707;28;19925;-82
2022/03/16 14:32:20;;;;;;;;;;;13.00;99.90;;;;;;5037089;28;19925;-82
2022/03/16 14:34:47;;;;;;;;;;;12.90;99.90;;;;;;5036550;28;19925;-81
2022/03/16 14:37:14;;;;;;;;;;;12.80;99.90;;;;;;5037238;28;19933;-82
2022/03/16 14:39:41;;;;;;;;;;;12.90;99.90;;;;;;5051950;28;20372;-82
2022/03/16 14:42:09;;;;;;;;;;;12.80;99.90;;;;;;5036998;28;19925;-85
2022/03/16 14:44:36;;;;;;;;;;;12.80;99.90;;;;;;5031625;28;19933;-82
2022/03/16 14:47:03;;;;;;;;;;;12.70;99.90;;;;;;5029795;28;20396;-81
2022/03/16 14:49:30;;;;;;;;;;;12.70;99.90;;;;;;5020455;28;19926;-82
2022/03/16 14:51:58;;;;;;;;;;;12.80;99.90;;;;;;5018405;28;19929;-84
2022/03/16 14:54:25;;;;;;;;;;;12.80;99.90;;;;;;5019277;28;19964;-83
2022/03/16 14:56:52;;;;;;;;;;;12.70;99.90;;;;;;5019623;28;19979;-83